Terminal Aerodrome Forecast
Issued by NWS Grand Forks, ND

Home | Current Version | Previous Version | Graphics & Text | Print | Product List | Glossary On
Versions: 1 2 3 4 5 6 7 8 9 10 11 12 13 14 15
000
FTUS43 KFGF 230659 AAA
TAFGFK
TAF AMD
KGFK 230659Z 2307/2406 34005KT 2SM -SN OVC035
      TEMPO 2307/2309 1SM -SN OVC015
     FM231100 33007KT P6SM OVC040
     FM231800 30007KT P6SM FEW250
     FM240100 22006KT P6SM SCT250=

USA.gov is the U.S. government's official web portal to all federal, state and local government web resources and services.